createdAt,value
2017-12-05T00:01:38.780Z,8.73
2017-12-05T00:04:05.814Z,9.37
2017-12-05T00:06:32.061Z,8.23
2017-12-05T00:08:58.343Z,12.47
2017-12-05T00:11:26.343Z,7.30
2017-12-05T00:13:52.607Z,4.47
2017-12-05T00:16:18.988Z,7.03
2017-12-05T00:18:45.271Z,11.33
2017-12-05T00:21:11.596Z,13.27
2017-12-05T00:23:37.894Z,14.70
2017-12-05T00:26:04.157Z,8.33
2017-12-05T00:28:30.452Z,11.40
2017-12-05T00:30:56.711Z,13.10
2017-12-05T00:33:23.060Z,4.00
2017-12-05T00:35:49.427Z,7.97
2017-12-05T00:38:15.712Z,10.00
2017-12-05T00:40:42.114Z,12.53
2017-12-05T00:43:08.536Z,8.90
2017-12-05T00:45:34.948Z,14.03
2017-12-05T00:48:01.224Z,10.20
2017-12-05T00:50:27.512Z,10.07
2017-12-05T00:52:53.780Z,7.40
2017-12-05T00:55:20.070Z,11.43
2017-12-05T00:57:46.322Z,8.37
2017-12-05T01:00:12.598Z,9.50
2017-12-05T01:02:38.848Z,4.57
2017-12-05T01:05:05.233Z,5.67
2017-12-05T01:07:31.593Z,6.47
2017-12-05T01:09:57.874Z,10.33
2017-12-05T01:12:24.933Z,12.47
2017-12-05T01:14:51.184Z,7.97
2017-12-05T01:17:18.218Z,8.47
2017-12-05T01:19:44.471Z,12.07
2017-12-05T01:22:10.770Z,7.40
2017-12-05T01:24:37.014Z,6.37
2017-12-05T01:27:03.315Z,6.07
2017-12-05T01:29:29.587Z,9.37
2017-12-05T01:31:55.892Z,11.30
2017-12-05T01:34:22.224Z,6.27
2017-12-05T01:36:48.465Z,8.20
2017-12-05T01:39:15.600Z,16.30
2017-12-05T01:41:41.830Z,8.50
2017-12-05T01:44:08.091Z,9.97
2017-12-05T01:46:35.138Z,13.20
2017-12-05T01:49:02.178Z,7.63
2017-12-05T01:51:29.432Z,8.37
2017-12-05T01:53:55.725Z,12.97
2017-12-05T01:56:22.324Z,14.90
2017-12-05T01:58:49.339Z,17.60
2017-12-05T02:01:16.785Z,8.83
2017-12-05T02:03:43.029Z,10.27
2017-12-05T02:06:10.181Z,11.30
2017-12-05T02:08:36.511Z,13.87
2017-12-05T02:11:02.821Z,10.37
2017-12-05T02:13:29.053Z,18.13
2017-12-05T02:15:55.298Z,10.10
2017-12-05T02:18:22.341Z,15.40
2017-12-05T02:20:48.642Z,12.33
2017-12-05T02:23:14.913Z,8.50
2017-12-05T02:25:41.914Z,9.60
2017-12-05T02:28:12.993Z,18.47
2017-12-05T02:30:39.290Z,11.27
2017-12-05T02:33:05.549Z,15.83
2017-12-05T02:35:31.774Z,9.07
2017-12-05T02:37:58.013Z,10.20
2017-12-05T02:40:42.819Z,13.90
2017-12-05T02:43:09.820Z,6.77
2017-12-05T02:45:36.868Z,7.93
2017-12-05T02:48:03.160Z,6.00
2017-12-05T02:50:29.408Z,5.30
2017-12-05T02:52:55.720Z,7.43
2017-12-05T02:55:21.981Z,9.80
2017-12-05T02:57:48.304Z,5.90
2017-12-05T03:00:14.576Z,3.53
2017-12-05T03:02:40.854Z,5.30
2017-12-05T03:05:07.136Z,3.93
2017-12-05T03:07:33.403Z,4.27
2017-12-05T03:09:59.660Z,4.90
2017-12-05T03:12:25.977Z,3.77
2017-12-05T03:14:52.259Z,5.03
2017-12-05T03:17:19.260Z,6.43
2017-12-05T03:19:45.579Z,6.20
2017-12-05T03:22:11.903Z,6.90
2017-12-05T03:24:38.227Z,5.47
2017-12-05T03:27:04.479Z,3.93
2017-12-05T03:29:30.798Z,3.07
2017-12-05T03:31:57.091Z,4.33
2017-12-05T03:34:24.148Z,3.70
2017-12-05T03:36:50.373Z,2.80
2017-12-05T03:39:16.637Z,2.77
2017-12-05T03:41:42.951Z,3.13
2017-12-05T03:44:09.213Z,3.70
2017-12-05T03:46:35.515Z,2.97
2017-12-05T03:49:01.765Z,3.50
2017-12-05T03:51:28.061Z,2.67
2017-12-05T03:53:55.114Z,3.50
2017-12-05T03:56:22.104Z,2.53
2017-12-05T03:58:48.354Z,4.10
2017-12-05T04:01:15.391Z,4.17
2017-12-05T04:03:41.640Z,3.80
2017-12-05T04:06:07.896Z,3.17
2017-12-05T04:08:34.905Z,2.10
2017-12-05T04:11:01.164Z,2.83
2017-12-05T04:13:28.265Z,3.80
2017-12-05T04:15:54.538Z,3.40
2017-12-05T04:18:21.543Z,2.50
2017-12-05T04:20:47.844Z,4.43
2017-12-05T04:23:14.157Z,4.20
2017-12-05T04:25:48.434Z,2.47
2017-12-05T04:28:14.720Z,1.70
2017-12-05T04:30:40.996Z,2.23
2017-12-05T04:33:07.264Z,2.00
2017-12-05T04:35:34.330Z,2.53
2017-12-05T04:38:00.660Z,1.83
2017-12-05T04:40:27.031Z,2.00
2017-12-05T04:42:53.325Z,3.77
2017-12-05T04:45:19.731Z,1.57
2017-12-05T04:47:46.743Z,2.27
2017-12-05T04:50:13.044Z,4.30
2017-12-05T04:52:39.334Z,4.03
2017-12-05T04:55:05.608Z,2.40
2017-12-05T04:57:31.927Z,2.80
2017-12-05T04:59:58.258Z,3.03
2017-12-05T05:02:24.630Z,3.57
2017-12-05T05:04:51.885Z,1.73
2017-12-05T05:07:18.179Z,1.50
2017-12-05T05:09:44.477Z,3.80
2017-12-05T05:12:10.770Z,2.40
2017-12-05T05:14:37.100Z,2.70
2017-12-05T05:17:04.218Z,2.10
2017-12-05T05:19:30.514Z,3.10
2017-12-05T05:21:57.555Z,2.60
2017-12-05T05:24:23.910Z,3.70
2017-12-05T05:26:50.216Z,2.70
2017-12-05T05:29:17.270Z,4.50
2017-12-05T05:31:44.289Z,3.57
2017-12-05T05:34:10.613Z,4.33
2017-12-05T05:36:36.912Z,3.30
2017-12-05T05:39:03.312Z,4.00
2017-12-05T05:41:29.701Z,4.30
2017-12-05T05:43:55.988Z,4.53
2017-12-05T05:46:22.314Z,6.20
2017-12-05T05:48:48.593Z,3.80
2017-12-05T05:51:14.959Z,4.53
2017-12-05T05:53:41.290Z,5.67
2017-12-05T05:56:07.599Z,5.40
2017-12-05T05:58:33.875Z,5.93
2017-12-05T06:01:00.129Z,4.83
2017-12-05T06:03:26.431Z,4.70
2017-12-05T06:05:52.695Z,8.73
2017-12-05T06:08:18.967Z,4.87
2017-12-05T06:10:45.519Z,9.43
2017-12-05T06:13:11.799Z,5.83
2017-12-05T06:15:38.111Z,12.27
2017-12-05T06:18:04.408Z,7.07
2017-12-05T06:20:31.596Z,4.67
2017-12-05T06:22:58.864Z,8.53
2017-12-05T06:25:25.120Z,5.63
2017-12-05T06:27:51.388Z,7.17
2017-12-05T06:30:18.368Z,10.33
2017-12-05T06:32:44.664Z,6.73
2017-12-05T06:35:10.894Z,8.90
2017-12-05T06:37:38.010Z,9.90
2017-12-05T06:40:04.304Z,6.40
2017-12-05T06:42:30.588Z,18.57
2017-12-05T06:44:56.885Z,12.27
2017-12-05T06:47:23.165Z,5.87
2017-12-05T06:49:49.426Z,11.07
2017-12-05T06:52:15.733Z,9.40
2017-12-05T06:54:42.011Z,8.83
2017-12-05T06:57:08.343Z,7.13
2017-12-05T06:59:34.639Z,8.47
2017-12-05T07:02:00.965Z,5.03
2017-12-05T07:04:27.304Z,6.10
2017-12-05T07:06:53.933Z,8.70
2017-12-05T07:09:21.101Z,6.17
2017-12-05T07:11:47.389Z,10.50
2017-12-05T07:14:13.673Z,9.93
2017-12-05T07:16:40.498Z,11.67
2017-12-05T07:19:06.891Z,9.00
2017-12-05T07:21:33.132Z,11.03
2017-12-05T07:23:59.436Z,8.10
2017-12-05T07:26:25.693Z,9.13
2017-12-05T07:28:51.979Z,9.63
2017-12-05T07:31:18.268Z,11.97
2017-12-05T07:33:44.738Z,7.43
2017-12-05T07:36:11.008Z,14.47
2017-12-05T07:38:37.991Z,7.13
2017-12-05T07:41:04.306Z,8.13
2017-12-05T07:43:30.586Z,11.17
2017-12-05T07:45:56.866Z,12.90
2017-12-05T07:48:23.138Z,8.40
2017-12-05T07:50:49.392Z,5.87
2017-12-05T07:53:15.724Z,13.20
2017-12-05T07:55:42.012Z,11.60
2017-12-05T07:58:08.280Z,14.80
2017-12-05T08:00:34.625Z,11.00
2017-12-05T08:03:01.701Z,13.70
2017-12-05T08:05:27.996Z,15.53
2017-12-05T08:07:55.158Z,14.90
2017-12-05T08:10:21.413Z,15.10
2017-12-05T08:12:47.704Z,13.97
2017-12-05T08:15:14.021Z,15.87
2017-12-05T08:17:40.306Z,14.63
2017-12-05T08:20:06.637Z,16.27
2017-12-05T08:22:32.919Z,16.70
2017-12-05T08:24:59.181Z,14.70
2017-12-05T08:27:25.869Z,16.97
2017-12-05T08:29:52.113Z,15.47
2017-12-05T08:32:18.381Z,12.13
2017-12-05T08:34:44.682Z,15.47
2017-12-05T08:37:11.053Z,14.00
2017-12-05T08:39:37.390Z,14.07
2017-12-05T08:42:03.720Z,16.73
2017-12-05T08:44:30.009Z,16.30
2017-12-05T08:46:56.947Z,12.23
2017-12-05T08:49:23.220Z,7.83
2017-12-05T08:51:49.523Z,12.30
2017-12-05T08:54:15.806Z,6.73
2017-12-05T08:56:42.118Z,7.03
2017-12-05T08:59:08.447Z,7.73
2017-12-05T09:01:34.704Z,10.17
2017-12-05T09:04:00.976Z,11.20
2017-12-05T09:06:27.270Z,16.40
2017-12-05T09:08:53.704Z,13.17
2017-12-05T09:11:20.028Z,11.60
2017-12-05T09:13:46.372Z,11.73
2017-12-05T09:16:12.669Z,22.57
2017-12-05T09:18:38.938Z,12.53
2017-12-05T09:21:06.176Z,12.70
2017-12-05T09:23:32.614Z,10.40
2017-12-05T09:25:58.845Z,15.23
2017-12-05T09:28:25.111Z,18.50
2017-12-05T09:30:51.413Z,15.23
2017-12-05T09:33:17.703Z,15.50
2017-12-05T09:35:44.043Z,16.67
2017-12-05T09:38:10.437Z,13.63
2017-12-05T09:40:36.699Z,9.23
2017-12-05T09:43:02.995Z,13.97
2017-12-05T09:45:29.336Z,13.30
2017-12-05T09:47:56.402Z,18.60
2017-12-05T09:50:22.687Z,15.10
2017-12-05T09:52:55.891Z,14.43
2017-12-05T09:55:22.910Z,11.13
2017-12-05T09:57:49.342Z,12.70
2017-12-05T10:00:15.818Z,12.37
2017-12-05T10:02:42.225Z,14.73
2017-12-05T10:05:08.717Z,8.50
2017-12-05T10:07:36.055Z,13.10
2017-12-05T10:10:02.345Z,16.30
2017-12-05T10:12:28.641Z,15.53
2017-12-05T10:14:54.969Z,12.77
2017-12-05T10:17:21.402Z,13.23
2017-12-05T10:19:47.669Z,15.93
2017-12-05T10:22:14.088Z,19.20
2017-12-05T10:24:41.135Z,13.03
2017-12-05T10:27:07.560Z,14.47
2017-12-05T10:29:33.989Z,12.03
2017-12-05T10:32:00.276Z,15.90
2017-12-05T10:34:26.718Z,16.83
2017-12-05T10:36:53.512Z,18.40
2017-12-05T10:41:50.924Z,17.23
2017-12-05T10:44:17.330Z,20.80
2017-12-05T10:46:43.653Z,15.97
2017-12-05T10:49:10.265Z,18.23
2017-12-05T10:51:36.813Z,14.53
2017-12-05T10:54:03.626Z,18.20
2017-12-05T10:56:30.265Z,14.43
2017-12-05T10:58:56.592Z,18.27
2017-12-05T11:01:23.428Z,18.87
2017-12-05T11:03:50.254Z,14.10
2017-12-05T11:06:17.020Z,18.43
2017-12-05T11:08:43.896Z,13.97
2017-12-05T11:11:10.938Z,14.90
2017-12-05T11:13:37.962Z,16.60
2017-12-05T11:16:05.007Z,14.23
2017-12-05T11:18:31.809Z,12.27
2017-12-05T11:20:59.111Z,16.03
2017-12-05T11:23:26.429Z,15.57
2017-12-05T11:25:54.353Z,14.73
2017-12-05T11:28:20.718Z,14.83
2017-12-05T11:30:47.839Z,12.20
2017-12-05T11:33:14.681Z,9.17
2017-12-05T11:35:41.448Z,17.83
2017-12-05T11:38:07.767Z,20.23
2017-12-05T11:40:34.074Z,8.40
2017-12-05T11:43:01.044Z,11.07
2017-12-05T11:45:27.359Z,13.27
2017-12-05T11:47:53.784Z,8.83
2017-12-05T11:50:20.072Z,13.73
2017-12-05T11:52:47.162Z,11.80
2017-12-05T11:55:13.488Z,14.70
2017-12-05T11:57:39.773Z,9.90
2017-12-05T12:00:06.121Z,12.00
2017-12-05T12:02:32.995Z,10.53
2017-12-05T12:04:59.389Z,9.03
2017-12-05T12:07:26.457Z,12.70
2017-12-05T12:09:52.732Z,17.23
2017-12-05T12:12:19.042Z,15.00
2017-12-05T12:14:45.458Z,17.10
2017-12-05T12:17:12.731Z,10.63
2017-12-05T12:19:40.233Z,18.57
2017-12-05T12:22:07.728Z,10.73
2017-12-05T12:24:34.909Z,13.87
2017-12-05T12:27:01.384Z,16.10
2017-12-05T12:29:28.557Z,19.03
2017-12-05T12:31:55.046Z,13.10
2017-12-05T12:34:21.479Z,10.20
2017-12-05T12:36:48.723Z,16.77
2017-12-05T12:39:15.244Z,13.13
2017-12-05T12:41:42.765Z,13.50
2017-12-05T12:44:09.349Z,16.77
2017-12-05T12:46:37.111Z,14.73
2017-12-05T12:49:04.104Z,14.83
2017-12-05T12:51:30.734Z,11.20
2017-12-05T12:53:57.930Z,20.13
2017-12-05T12:56:24.991Z,15.33
2017-12-05T12:58:51.322Z,19.57
2017-12-05T13:01:17.854Z,19.53
2017-12-05T13:03:44.234Z,21.33
2017-12-05T13:06:11.336Z,13.90
2017-12-05T13:08:37.867Z,19.73
2017-12-05T13:11:04.358Z,14.77
2017-12-05T13:13:31.559Z,15.60
2017-12-05T13:15:58.635Z,18.03
2017-12-05T13:18:25.009Z,13.60
2017-12-05T13:20:51.397Z,12.87
2017-12-05T13:23:17.967Z,19.67
2017-12-05T13:25:44.267Z,15.43
2017-12-05T13:28:10.563Z,17.60
2017-12-05T13:30:36.809Z,15.93
2017-12-05T13:33:03.100Z,17.73
2017-12-05T13:35:29.430Z,16.80
2017-12-05T13:37:55.701Z,23.80
2017-12-05T13:40:22.010Z,19.40
2017-12-05T13:42:49.308Z,19.03
2017-12-05T13:45:15.779Z,21.60
2017-12-05T13:47:42.814Z,17.67
2017-12-05T13:50:09.833Z,24.00
2017-12-05T13:52:36.152Z,20.03
2017-12-05T13:55:02.455Z,15.40
2017-12-05T13:57:28.899Z,18.03
2017-12-05T13:59:55.181Z,16.13
2017-12-05T14:02:21.684Z,19.50
2017-12-05T14:04:47.980Z,13.87
2017-12-05T14:07:14.278Z,15.93
2017-12-05T14:09:41.369Z,17.60
2017-12-05T14:12:07.704Z,14.40
2017-12-05T14:14:34.981Z,16.13
2017-12-05T14:17:01.273Z,13.60
2017-12-05T14:19:27.595Z,17.10
2017-12-05T14:21:53.905Z,16.77
2017-12-05T14:24:20.997Z,14.10
2017-12-05T14:26:47.301Z,17.90
2017-12-05T14:29:13.565Z,15.63
2017-12-05T14:31:39.865Z,19.03
2017-12-05T14:34:06.169Z,15.87
2017-12-05T14:36:34.372Z,17.43
2017-12-05T14:39:00.794Z,19.30
2017-12-05T14:41:27.101Z,17.47
2017-12-05T14:43:54.097Z,20.77
2017-12-05T14:46:20.449Z,20.33
2017-12-05T14:48:46.757Z,23.60
2017-12-05T14:51:13.066Z,18.73
2017-12-05T14:53:39.403Z,24.80
2017-12-05T14:56:05.756Z,18.00
2017-12-05T14:58:32.110Z,19.70
2017-12-05T15:00:58.522Z,17.83
2017-12-05T15:03:24.867Z,18.17
2017-12-05T15:05:51.365Z,21.60
2017-12-05T15:08:17.700Z,17.90
2017-12-05T15:10:45.077Z,22.77
2017-12-05T15:13:12.193Z,21.83
2017-12-05T15:15:39.575Z,18.27
2017-12-05T15:18:05.871Z,18.27
2017-12-05T15:20:34.201Z,16.37
2017-12-05T15:23:00.739Z,20.93
2017-12-05T15:25:27.012Z,20.30
2017-12-05T15:27:54.019Z,15.47
2017-12-05T15:30:20.355Z,19.10
2017-12-05T15:32:46.682Z,20.53
2017-12-05T15:35:13.464Z,16.00
2017-12-05T15:37:40.534Z,18.77
2017-12-05T15:40:06.986Z,20.00
2017-12-05T15:42:33.390Z,20.60
2017-12-05T15:44:59.688Z,21.40
2017-12-05T15:47:26.842Z,22.13
2017-12-05T15:49:54.080Z,21.60
2017-12-05T15:52:24.970Z,17.37
2017-12-05T15:54:52.320Z,18.23
2017-12-05T15:57:20.916Z,21.17
2017-12-05T15:59:59.962Z,24.63
2017-12-05T16:02:27.675Z,19.70
2017-12-05T16:04:55.639Z,22.60
2017-12-05T16:07:22.041Z,22.50
2017-12-05T16:09:49.119Z,19.57
2017-12-05T16:12:15.525Z,25.30
2017-12-05T16:14:42.911Z,20.00
2017-12-05T16:17:11.331Z,19.43
2017-12-05T16:19:37.694Z,22.37
2017-12-05T16:22:03.976Z,19.17
2017-12-05T16:24:31.474Z,18.77
2017-12-05T16:26:58.622Z,21.00
2017-12-05T16:29:24.984Z,15.83
2017-12-05T16:31:51.660Z,16.70
2017-12-05T16:34:17.981Z,17.20
2017-12-05T16:36:45.040Z,17.63
2017-12-05T16:39:11.368Z,15.73
2017-12-05T16:41:37.668Z,17.70
2017-12-05T16:44:03.961Z,17.60
2017-12-05T16:46:30.214Z,15.90
2017-12-05T16:48:56.555Z,16.70
2017-12-05T16:51:23.113Z,20.33
2017-12-05T16:53:49.506Z,13.93
2017-12-05T16:56:16.575Z,16.70
2017-12-05T16:58:43.075Z,12.93
2017-12-05T17:01:09.365Z,15.80
2017-12-05T17:03:35.665Z,15.97
2017-12-05T17:06:01.961Z,14.00
2017-12-05T17:08:28.309Z,14.13
2017-12-05T17:10:54.593Z,17.87
2017-12-05T17:13:21.615Z,14.80
2017-12-05T17:15:48.048Z,14.30
2017-12-05T17:18:14.352Z,15.00
2017-12-05T17:20:40.668Z,17.60
2017-12-05T17:23:07.144Z,12.67
2017-12-05T17:25:33.496Z,19.83
2017-12-05T17:28:00.536Z,18.93
2017-12-05T17:30:27.590Z,15.83
2017-12-05T17:32:54.706Z,14.73
2017-12-05T17:35:21.006Z,20.00
2017-12-05T17:37:48.444Z,18.63
2017-12-05T17:40:15.815Z,16.90
2017-12-05T17:42:42.292Z,16.83
2017-12-05T17:45:08.595Z,17.60
2017-12-05T17:47:34.867Z,16.70
2017-12-05T17:50:01.205Z,18.40
2017-12-05T17:52:28.186Z,15.53
2017-12-05T17:54:54.522Z,21.63
2017-12-05T17:57:20.953Z,19.13
2017-12-05T17:59:47.383Z,15.33
2017-12-05T18:02:13.665Z,13.80
2017-12-05T18:04:40.013Z,20.27
2017-12-05T18:07:07.126Z,15.00
2017-12-05T18:09:33.394Z,14.13
2017-12-05T18:12:00.514Z,15.73
2017-12-05T18:14:26.832Z,13.53
2017-12-05T18:16:53.166Z,17.33
2017-12-05T18:19:19.496Z,14.00
2017-12-05T18:21:46.536Z,19.63
2017-12-05T18:24:12.980Z,13.90
2017-12-05T18:26:39.318Z,14.30
2017-12-05T18:29:05.644Z,16.10
2017-12-05T18:31:32.005Z,14.83
2017-12-05T18:33:59.122Z,14.50
2017-12-05T18:36:26.321Z,15.17
2017-12-05T18:38:53.433Z,16.63
2017-12-05T18:41:19.689Z,14.37
2017-12-05T18:43:46.733Z,14.27
2017-12-05T18:46:13.788Z,15.10
2017-12-05T18:48:40.832Z,14.33
2017-12-05T18:51:07.153Z,13.60
2017-12-05T18:53:33.441Z,16.23
2017-12-05T18:55:59.682Z,12.57
2017-12-05T18:58:25.974Z,17.23
2017-12-05T19:00:52.325Z,16.60
2017-12-05T19:03:18.658Z,13.60
2017-12-05T19:05:44.990Z,13.43
2017-12-05T19:08:11.281Z,16.17
2017-12-05T19:10:38.318Z,21.40
2017-12-05T19:13:06.398Z,16.63
2017-12-05T19:15:33.627Z,14.17
2017-12-05T19:18:00.289Z,19.50
2017-12-05T19:20:27.325Z,15.60
2017-12-05T19:22:53.683Z,14.83
2017-12-05T19:25:20.020Z,17.13
2017-12-05T19:27:46.487Z,16.33
2017-12-05T19:30:12.948Z,14.20
2017-12-05T19:32:39.360Z,15.50
2017-12-05T19:35:06.507Z,18.30
2017-12-05T19:37:32.862Z,19.47
2017-12-05T19:40:00.986Z,16.20
2017-12-05T19:42:28.263Z,16.07
2017-12-05T19:44:54.564Z,19.93
2017-12-05T19:47:22.972Z,17.77
2017-12-05T19:49:49.313Z,16.30
2017-12-05T19:52:15.775Z,15.30
2017-12-05T19:54:45.323Z,17.80
2017-12-05T19:57:11.617Z,18.90
2017-12-05T19:59:38.079Z,16.23
2017-12-05T20:02:04.451Z,21.60
2017-12-05T20:04:30.876Z,17.47
2017-12-05T20:06:57.260Z,18.40
2017-12-05T20:09:33.592Z,18.73
2017-12-05T20:11:59.940Z,13.33
2017-12-05T20:14:27.191Z,15.77
2017-12-05T20:16:53.991Z,19.37
2017-12-05T20:19:20.474Z,18.33
2017-12-05T20:21:47.086Z,17.40
2017-12-05T20:24:13.617Z,20.10
2017-12-05T20:26:39.970Z,18.70
2017-12-05T20:29:06.578Z,19.10
2017-12-05T20:31:33.018Z,16.30
2017-12-05T20:33:59.560Z,17.97
2017-12-05T20:36:26.902Z,18.20
2017-12-05T20:38:53.234Z,21.30
2017-12-05T20:41:19.626Z,22.03
2017-12-05T20:43:47.080Z,18.10
2017-12-05T20:46:13.470Z,20.40
2017-12-05T20:48:39.929Z,18.77
2017-12-05T20:51:06.359Z,18.20
2017-12-05T20:53:33.026Z,22.03
2017-12-05T20:56:00.116Z,17.83
2017-12-05T20:58:26.471Z,21.80
2017-12-05T21:00:52.851Z,20.10
2017-12-05T21:03:19.227Z,21.17
2017-12-05T21:05:45.680Z,22.30
2017-12-05T21:08:12.067Z,20.83
2017-12-05T21:10:43.546Z,21.73
2017-12-05T21:13:11.653Z,22.87
2017-12-05T21:15:38.010Z,19.20
2017-12-05T21:18:04.379Z,19.80
2017-12-05T21:20:30.765Z,19.70
2017-12-05T21:22:57.382Z,18.40
2017-12-05T21:25:23.777Z,19.67
2017-12-05T21:27:50.100Z,20.50
2017-12-05T21:30:16.379Z,19.70
2017-12-05T21:32:43.490Z,19.63
2017-12-05T21:35:09.783Z,19.00
2017-12-05T21:37:36.053Z,21.83
2017-12-05T21:40:02.584Z,21.70
2017-12-05T21:42:29.934Z,19.10
2017-12-05T21:44:56.308Z,19.33
2017-12-05T21:47:22.632Z,18.70
2017-12-05T21:49:48.934Z,22.50
2017-12-05T21:52:15.655Z,18.90
2017-12-05T21:54:42.406Z,15.43
2017-12-05T21:57:09.210Z,17.20
2017-12-05T21:59:36.598Z,21.03
2017-12-05T22:02:03.602Z,15.60
2017-12-05T22:04:30.363Z,19.17
2017-12-05T22:06:58.121Z,16.47
2017-12-05T22:09:26.135Z,16.87
2017-12-05T22:11:52.877Z,16.97
2017-12-05T22:14:21.645Z,14.00
2017-12-05T22:16:47.926Z,16.73
2017-12-05T22:19:14.206Z,13.53
2017-12-05T22:21:40.584Z,16.83
2017-12-05T22:24:06.883Z,14.20
2017-12-05T22:26:33.202Z,14.90
2017-12-05T22:28:59.522Z,16.20
2017-12-05T22:31:26.666Z,15.03
2017-12-05T22:33:52.958Z,16.70
2017-12-05T22:36:19.251Z,22.47
2017-12-05T22:38:45.579Z,19.43
2017-12-05T22:41:11.868Z,14.80
2017-12-05T22:43:38.930Z,20.97
2017-12-05T22:46:06.299Z,20.60
2017-12-05T22:48:32.642Z,16.10
2017-12-05T22:51:00.324Z,18.90
2017-12-05T22:53:27.370Z,16.67
2017-12-05T22:55:53.631Z,18.70
2017-12-05T22:58:19.929Z,21.17
2017-12-05T23:00:46.213Z,13.10
2017-12-05T23:03:13.217Z,18.70
2017-12-05T23:05:39.489Z,18.77
2017-12-05T23:08:06.507Z,20.07
2017-12-05T23:10:32.779Z,18.43
2017-12-05T23:12:59.438Z,18.40
2017-12-05T23:15:25.838Z,18.27
2017-12-05T23:17:52.482Z,15.00
2017-12-05T23:20:18.764Z,15.47
2017-12-05T23:22:45.048Z,17.07
2017-12-05T23:25:11.368Z,20.80
2017-12-05T23:27:37.736Z,19.13
2017-12-05T23:30:04.032Z,16.87
2017-12-05T23:32:31.492Z,14.97
2017-12-05T23:34:57.790Z,14.90
2017-12-05T23:37:24.133Z,17.50
2017-12-05T23:39:50.444Z,12.63
2017-12-05T23:42:16.821Z,14.93
2017-12-05T23:44:43.149Z,20.40
2017-12-05T23:47:10.210Z,15.67
2017-12-05T23:49:37.279Z,14.20
2017-12-05T23:52:04.013Z,18.43
2017-12-05T23:54:30.305Z,17.60
2017-12-05T23:56:56.600Z,17.60
2017-12-05T23:59:22.889Z,17.50
